Radar AviationWeather DUATS TFRs Wunderground Accuweather Weather.com

Radar

TAFs

KTOL 181742Z 1818/1918 08004KT P6SM BKN040
   FM190000 10004KT P6SM FEW150
   FM190600 00000KT P6SM SCT250
   FM191700 00000KT P6SM SCT060
KFDY 181742Z 1818/1918 06004KT P6SM BKN040
   FM190000 06004KT P6SM SCT070
   FM190300 09004KT P6SM FEW250
   FM191700 00000KT P6SM SCT110
KCLE 181742Z 1818/1924 36006KT P6SM BKN035
   FM190300 00000KT P6SM FEW200
   FM191200 00000KT P6SM FEW060
   FM191400 00000KT P6SM SCT045
   FM191700 01005KT P6SM SCT110
KJXN 181740Z 1818/1918 VRB03KT P6SM BKN025
   FM182100 24005KT P6SM BKN035
   FM190600 00000KT 5SM BR SCT080
   FM190900 00000KT 2SM BR BKN025
   FM191300 00000KT 5SM BR BKN250
KDTW 181733Z 1818/1924 06004KT P6SM BKN040
   FM182000 14006KT P6SM SCT050
   FM190600 VRB03KT P6SM BKN120
   FM191400 23004KT P6SM SCT050 BKN120
   FM192100 08005KT P6SM BKN050 OVC120
KFWA 181720Z 1818/1918 08003KT P6SM BKN050
   FM190000 VRB03KT P6SM SCT040
   FM191100 VRB03KT 6SM BR FEW015 BKN060
   FM191500 VRB04KT P6SM BKN070

METARs

KDUH 181935Z AUTO 00000KT 10SM CLR 25/16 A2992 RMK AO2 T02450163
KJXN 181856Z 26003KT 10SM BKN040 BKN046 OVC065 25/17 A2993 RMK AO2 SLP131 T02500172
KFWA 181854Z VRB03KT 10SM FEW037 SCT055 27/16 A2992 RMK AO2 SLP127 T02670161
KDTW 181853Z 16006KT 10SM FEW035 BKN060 25/15 A2993 RMK AO2 SLP133 T02500150
KFDY 181853Z AUTO VRB03KT 10SM SCT038 26/16 A2991 RMK AO2 SLP121 T02610161
KTDZ 181853Z AUTO 07005KT 10SM BKN049 24/16 A2994 RMK AO2 SLP136 T02390156 $
KTOL 181852Z VRB04KT 10SM BKN040 BKN047 25/16 A2993 RMK AO2 SLP132 T02500156 $
KCLE 181851Z 36009KT 10SM SCT041 BKN250 24/16 A2995 RMK AO2 SLP137 T02390156 $

Satellite

TFRs